Aviation Digital Data Service (ADDS)

Output produced by TAFs form (0316 UTC 26 February 2017)
found at http://www.aviationweather.gov/adds/tafs/
 
KGFL 260220Z 2602/2624 28007KT P6SM VCSH SCT015 OVC080 
     TEMPO 2602/2604 5SM -SHSNRA BR BKN015 OVC060 
     FM260400 27010KT P6SM VCSH OVC035 
     FM261400 28015G25KT P6SM BKN045